Weather reports worldwide

Advertisment
Cuneo Levaldigi, Italy (16117): temperature & dewpoint: 24.10.2020 03:00:00 - 30.10.2020 03:00:00 (CET)Cuneo Levaldigi, Italy (16117): wind speed: 24.10.2020 03:00:00 - 30.10.2020 03:00:00 (CET)Cuneo Levaldigi, Italy (16117): wind direction: 24.10.2020 03:00:00 - 30.10.2020 03:00:00 (CET)Cuneo Levaldigi, Italy (16117): visibility: 24.10.2020 03:00:00 - 30.10.2020 03:00:00 (CET)
Date & Time tt [°C] td [°C] ff [km/h] ff [kn] dd vv [km]
30.10.2020 03:00:00 7,0 6,0 4 2 - 10
30.10.2020 02:00:00 7,0 6,0 5 3 S 10
30.10.2020 01:00:00 7,0 7,0 8 4 SSW 10
30.10.2020 00:00:00 7,0 6,0 9 5 SW 10
29.10.2020 23:00:00 7,0 7,0 5 3 WSW 8
29.10.2020 22:00:00 6,0 6,0 8 4 SW 9
29.10.2020 21:00:00 6,0 6,0 11 6 SSW 5
29.10.2020 20:00:00 8,0 7,0 4 2 - 5
29.10.2020 19:00:00 9,0 8,0 5 3 W 9
29.10.2020 18:00:00 11,0 9,0 4 2 - 10
29.10.2020 17:00:00 13,0 9,0 4 2 NE 10
29.10.2020 16:00:00 15,0 9,0 0 0 N 10
29.10.2020 15:00:00 14,0 9,0 4 2 - 10
29.10.2020 14:00:00 14,0 9,0 4 2 - 10
29.10.2020 13:00:00 15,0 9,0 2 1 - 10
29.10.2020 12:00:00 13,0 8,0 5 3 E 10
29.10.2020 11:00:00 13,0 8,0 2 1 - 10
29.10.2020 10:00:00 11,0 8,0 2 1 - 10
29.10.2020 09:00:00 8,0 7,0 5 3 SW 10
29.10.2020 08:00:00 5,0 5,0 8 4 WSW 10
29.10.2020 07:00:00 6,0 5,0 8 4 WSW 10
29.10.2020 06:00:00 5,0 4,0 8 4 SW 10
29.10.2020 05:00:00 4,0 4,0 8 4 SSW 10
29.10.2020 04:00:00 5,0 4,0 4 2 - 10
29.10.2020 03:00:00 5,0 5,0 8 4 WSW 10
29.10.2020 02:00:00 5,0 5,0 9 5 SW 10
29.10.2020 01:00:00 5,0 4,0 2 1 S 10
29.10.2020 00:00:00 5,0 4,0 4 2 - 10
28.10.2020 23:00:00 6,0 5,0 4 2 - 10
28.10.2020 22:00:00 6,0 5,0 9 5 SW 10
28.10.2020 21:00:00 5,0 5,0 8 4 SW 10
28.10.2020 20:00:00 8,0 7,0 9 5 WSW 10
28.10.2020 19:00:00 9,0 7,0 5 3 WSW 10
28.10.2020 18:00:00 13,0 7,0 4 2 NNW 10
28.10.2020 17:00:00 14,0 6,0 4 2 N 10
28.10.2020 16:00:00 - - - - - -
28.10.2020 15:00:00 16,0 6,0 2 1 - 10
28.10.2020 14:00:00 15,0 7,0 9 5 NNE 10
28.10.2020 13:00:00 15,0 7,0 4 2 - 10
28.10.2020 12:00:00 13,0 6,0 5 3 - 10
28.10.2020 11:00:00 12,0 6,0 4 2 - 10
28.10.2020 10:00:00 12,0 6,0 2 1 - 10
28.10.2020 09:00:00 9,0 6,0 2 1 - 10
28.10.2020 08:00:00 5,0 4,0 8 4 SW 10
28.10.2020 07:00:00 5,0 4,0 8 4 SW 10
28.10.2020 06:00:00 4,0 3,0 8 4 SW 10
28.10.2020 05:00:00 3,0 2,0 8 4 SW 10
28.10.2020 04:00:00 4,0 3,0 5 3 WSW 10
28.10.2020 03:00:00 6,0 3,0 8 4 SW 10
28.10.2020 02:00:00 5,0 3,0 8 4 SW 10
28.10.2020 01:00:00 5,0 3,0 8 4 SW 10
28.10.2020 00:00:00 5,0 3,0 8 4 SW 10
27.10.2020 23:00:00 5,0 3,0 9 5 WSW 10
27.10.2020 22:00:00 5,0 3,0 8 4 SW 10
27.10.2020 21:00:00 6,0 4,0 8 4 SW 10
27.10.2020 20:00:00 6,0 4,0 9 5 WSW 10
27.10.2020 19:00:00 9,0 5,0 8 4 W 10
27.10.2020 18:00:00 12,0 4,0 4 2 NNE 10
27.10.2020 17:00:00 15,0 3,0 5 3 NNE 10
27.10.2020 16:00:00 16,0 4,0 8 4 NE 10
27.10.2020 15:00:00 17,0 -2,0 9 5 E 10
27.10.2020 14:00:00 17,0 4,0 11 6 E 10
27.10.2020 13:00:00 16,0 6,0 9 5 ESE 10
27.10.2020 12:00:00 15,0 6,0 8 4 S 10
27.10.2020 11:00:00 13,0 6,0 8 4 SSE 10
27.10.2020 10:00:00 11,0 6,0 9 5 SW 10
27.10.2020 09:00:00 - - - - - -
27.10.2020 08:00:00 6,0 6,0 5 3 SW 10
27.10.2020 07:00:00 5,0 5,0 9 5 W 10
27.10.2020 06:00:00 6,0 6,0 11 6 SSE 10
27.10.2020 05:00:00 6,0 6,0 9 5 S 10
27.10.2020 04:00:00 7,0 7,0 15 8 SSW 10
27.10.2020 03:00:00 9,0 8,0 11 6 WSW 10
27.10.2020 02:00:00 10,0 8,0 11 6 ENE 10
27.10.2020 01:00:00 10,0 9,0 9 5 S 10
27.10.2020 00:00:00 10,0 10,0 8 4 E 5
26.10.2020 23:00:00 11,0 11,0 4 2 - 8
26.10.2020 22:00:00 11,0 11,0 2 1 - 6
26.10.2020 21:00:00 - - - - - -
26.10.2020 20:00:00 11,0 11,0 8 4 SSE 7
26.10.2020 19:00:00 12,0 11,0 2 1 - 10
26.10.2020 18:00:00 12,0 12,0 5 3 N 10
26.10.2020 17:00:00 13,0 11,0 8 4 NNW 10
26.10.2020 16:00:00 13,0 12,0 5 3 SSE 10
26.10.2020 15:00:00 13,0 11,0 5 3 NNE 10
26.10.2020 14:00:00 13,0 11,0 9 5 ENE 10
26.10.2020 13:00:00 14,0 12,0 2 1 - 10
26.10.2020 12:00:00 13,0 12,0 2 1 - 10
26.10.2020 11:00:00 12,0 12,0 5 3 SSW 6
26.10.2020 10:00:00 12,0 12,0 4 2 - 3,5
26.10.2020 09:00:00 11,0 11,0 4 2 - 1,9
26.10.2020 08:00:00 11,0 11,0 4 2 - 1,6
26.10.2020 07:00:00 11,0 11,0 5 3 NNE 2,2
26.10.2020 06:00:00 11,0 11,0 2 1 - 3,6
26.10.2020 05:00:00 11,0 11,0 0 0 N 5
26.10.2020 04:00:00 10,0 10,0 4 2 SW 2,4
26.10.2020 03:00:00 10,0 10,0 5 3 WNW 2,3
26.10.2020 02:00:00 10,0 10,0 4 2 - 1,9
26.10.2020 01:00:00 11,0 11,0 2 1 - 3,2
26.10.2020 00:00:00 10,0 10,0 5 3 SW 4,0
25.10.2020 23:00:00 10,0 10,0 5 3 W 3,7
25.10.2020 22:00:00 9,0 9,0 5 3 W 2,5
25.10.2020 21:00:00 10,0 10,0 4 2 - 3,3
25.10.2020 20:00:00 9,0 9,0 8 4 W 3,3
25.10.2020 19:00:00 10,0 10,0 0 0 N 3,4
25.10.2020 18:00:00 12,0 11,0 2 1 N 8
25.10.2020 17:00:00 13,0 11,0 5 3 N 10
25.10.2020 16:00:00 14,0 12,0 9 5 N 10
25.10.2020 15:00:00 15,0 12,0 9 5 N 10
25.10.2020 14:00:00 15,0 12,0 9 5 N 10
25.10.2020 13:00:00 14,0 11,0 5 3 NNE 9
25.10.2020 12:00:00 14,0 12,0 8 4 NE 8
25.10.2020 11:00:00 12,0 11,0 4 2 - 6
25.10.2020 10:00:00 12,0 10,0 2 1 - 10
25.10.2020 09:00:00 11,0 9,0 2 1 - 10
25.10.2020 08:00:00 10,0 9,0 5 3 SSE 10
25.10.2020 07:00:00 10,0 9,0 2 1 - 10
25.10.2020 06:00:00 10,0 9,0 4 2 W 10
25.10.2020 05:00:00 9,0 9,0 4 2 - 10
25.10.2020 04:00:00 8,0 8,0 4 2 W 10
25.10.2020 03:00:00 9,0 8,0 4 2 - 10
25.10.2020 02:00:00 6,0 6,0 5 3 SSW 10
25.10.2020 01:00:00 - - - - - -
25.10.2020 00:00:00 6,0 6,0 8 4 SSW 10
24.10.2020 23:00:00 9,0 8,0 5 3 W 10
24.10.2020 22:00:00 8,0 7,0 4 2 - 10
24.10.2020 21:00:00 9,0 8,0 4 2 SW 10
24.10.2020 20:00:00 9,0 9,0 4 2 - 10
24.10.2020 19:00:00 12,0 10,0 2 1 W 10
24.10.2020 18:00:00 15,0 11,0 0 0 N 10
24.10.2020 17:00:00 18,0 10,0 4 2 ESE 10
24.10.2020 16:00:00 20,0 11,0 2 1 - 10
24.10.2020 15:00:00 19,0 10,0 2 1 - 10
24.10.2020 14:00:00 19,0 11,0 5 3 - 10
24.10.2020 13:00:00 18,0 12,0 4 2 - 10
24.10.2020 12:00:00 16,0 11,0 4 2 - 10
24.10.2020 11:00:00 14,0 11,0 8 4 NE 10
24.10.2020 10:00:00 14,0 10,0 2 1 - 10
24.10.2020 09:00:00 12,0 10,0 4 2 S 10
24.10.2020 08:00:00 11,0 10,0 5 3 - 10
24.10.2020 07:00:00 11,0 10,0 2 1 - 10
24.10.2020 06:00:00 11,0 10,0 8 4 WSW 10
24.10.2020 05:00:00 11,0 11,0 8 4 SW 5
24.10.2020 04:00:00 11,0 11,0 0 0 N 1,6
24.10.2020 03:00:00 11,0 11,0 5 3 N 1,8

tt = temperature
td = dewpoint
ff = wind speed
dd = wind direction
vv = visibility

Next stations